createdAt,value
2023-05-06T00:00:06.229Z,0.00
2023-05-06T00:01:06.177Z,0.00
2023-05-06T00:02:06.196Z,0.00
2023-05-06T00:03:06.220Z,0.00
2023-05-06T00:04:06.365Z,0.00
2023-05-06T00:05:06.188Z,0.00
2023-05-06T00:06:06.152Z,0.00
2023-05-06T00:07:06.121Z,0.00
2023-05-06T00:08:06.120Z,0.00
2023-05-06T00:09:06.092Z,0.00
2023-05-06T00:10:06.122Z,0.00
2023-05-06T00:11:06.119Z,0.00
2023-05-06T00:12:06.080Z,0.00
2023-05-06T00:13:06.106Z,0.00
2023-05-06T00:14:06.065Z,0.00
2023-05-06T00:15:06.103Z,0.00
2023-05-06T00:16:06.064Z,0.00
2023-05-06T00:17:06.039Z,0.00
2023-05-06T00:18:06.077Z,0.00
2023-05-06T00:19:05.993Z,0.00
2023-05-06T00:20:06.004Z,0.00
2023-05-06T00:21:05.956Z,0.00
2023-05-06T00:22:06.022Z,0.00
2023-05-06T00:23:05.949Z,0.00
2023-05-06T00:24:05.972Z,0.00
2023-05-06T00:25:05.979Z,0.00
2023-05-06T00:26:05.948Z,0.00
2023-05-06T00:27:05.905Z,0.00
2023-05-06T00:28:05.904Z,0.00
2023-05-06T00:29:05.888Z,0.00
2023-05-06T00:30:05.898Z,0.00
2023-05-06T00:31:05.852Z,0.00
2023-05-06T00:32:05.967Z,0.00
2023-05-06T00:33:05.890Z,0.00
2023-05-06T00:34:05.837Z,0.00
2023-05-06T00:35:05.822Z,0.00
2023-05-06T00:36:05.820Z,0.00
2023-05-06T00:37:05.800Z,0.00
2023-05-06T00:38:05.800Z,0.00
2023-05-06T00:39:05.786Z,0.00
2023-05-06T00:40:05.808Z,0.00
2023-05-06T00:41:05.760Z,0.00
2023-05-06T00:42:05.796Z,0.00
2023-05-06T00:43:05.724Z,0.00
2023-05-06T00:44:05.744Z,0.00
2023-05-06T00:45:05.709Z,0.00
2023-05-06T00:46:05.758Z,0.00
2023-05-06T00:47:05.687Z,0.00
2023-05-06T00:48:05.810Z,0.00
2023-05-06T00:49:05.680Z,0.00
2023-05-06T00:50:05.690Z,0.00
2023-05-06T00:51:05.651Z,0.00
2023-05-06T00:52:05.742Z,0.00
2023-05-06T00:53:05.726Z,0.00
2023-05-06T00:54:05.694Z,0.00
2023-05-06T00:55:05.666Z,0.00
2023-05-06T00:56:05.620Z,0.00
2023-05-06T00:57:05.603Z,0.00
2023-05-06T00:58:05.598Z,0.00
2023-05-06T00:59:05.556Z,0.00
2023-05-06T01:00:05.625Z,0.00
2023-05-06T01:01:05.598Z,0.00
2023-05-06T01:02:05.619Z,0.00
2023-05-06T01:03:05.555Z,0.00
2023-05-06T01:04:05.563Z,0.00
2023-05-06T01:05:05.523Z,0.00
2023-05-06T01:06:05.499Z,0.00
2023-05-06T01:07:05.475Z,0.00
2023-05-06T01:08:05.492Z,0.00
2023-05-06T01:09:05.460Z,0.00
2023-05-06T01:10:05.462Z,0.00
2023-05-06T01:11:05.434Z,0.00
2023-05-06T01:12:05.434Z,0.00
2023-05-06T01:13:05.443Z,0.00
2023-05-06T01:14:05.440Z,0.00
2023-05-06T01:15:05.387Z,0.00
2023-05-06T01:16:05.414Z,0.00
2023-05-06T01:17:05.387Z,0.00
2023-05-06T01:18:05.404Z,0.00
2023-05-06T01:19:05.340Z,0.00
2023-05-06T01:20:05.366Z,0.00
2023-05-06T01:21:05.334Z,0.00
2023-05-06T01:22:05.346Z,0.00
2023-05-06T01:23:05.304Z,0.00
2023-05-06T01:24:05.308Z,0.00
2023-05-06T01:25:05.274Z,0.00
2023-05-06T01:26:05.298Z,0.00
2023-05-06T01:27:05.262Z,0.00
2023-05-06T01:28:05.286Z,0.00
2023-05-06T01:29:05.235Z,0.00
2023-05-06T01:30:05.245Z,0.00
2023-05-06T01:31:05.260Z,0.00
2023-05-06T01:32:05.232Z,0.00
2023-05-06T01:33:05.196Z,0.00
2023-05-06T01:34:05.215Z,0.00
2023-05-06T01:35:05.170Z,0.00
2023-05-06T01:36:05.190Z,0.00
2023-05-06T01:37:05.161Z,0.00
2023-05-06T01:38:05.138Z,0.00
2023-05-06T01:39:05.150Z,0.00
2023-05-06T01:40:05.114Z,0.00
2023-05-06T01:41:05.132Z,0.00
2023-05-06T01:42:05.104Z,0.00
2023-05-06T01:43:05.123Z,0.00
2023-05-06T01:44:05.072Z,0.00
2023-05-06T01:45:05.077Z,0.00
2023-05-06T01:46:05.176Z,0.00
2023-05-06T01:47:05.063Z,0.00
2023-05-06T01:48:05.085Z,0.00
2023-05-06T01:49:05.052Z,0.00
2023-05-06T01:50:05.009Z,0.00
2023-05-06T01:51:05.032Z,0.00
2023-05-06T01:52:04.989Z,0.00
2023-05-06T01:53:05.031Z,0.00
2023-05-06T01:54:05.011Z,0.00
2023-05-06T01:55:05.064Z,0.00
2023-05-06T01:56:04.949Z,0.00
2023-05-06T01:57:04.977Z,0.00
2023-05-06T01:58:04.951Z,0.00
2023-05-06T01:59:04.928Z,0.00
2023-05-06T02:00:04.912Z,0.00
2023-05-06T02:01:04.922Z,0.00
2023-05-06T02:02:04.968Z,0.00
2023-05-06T02:03:04.968Z,0.00
2023-05-06T02:04:05.038Z,0.00
2023-05-06T02:05:04.863Z,0.00
2023-05-06T02:06:04.893Z,0.00
2023-05-06T02:07:04.846Z,0.00
2023-05-06T02:08:04.825Z,0.00
2023-05-06T02:09:04.890Z,0.00
2023-05-06T02:10:04.805Z,0.00
2023-05-06T02:11:04.814Z,0.00
2023-05-06T02:12:04.772Z,0.00
2023-05-06T02:13:04.789Z,0.00
2023-05-06T02:14:04.771Z,0.00
2023-05-06T02:15:04.804Z,0.00
2023-05-06T02:16:04.753Z,0.00
2023-05-06T02:17:04.755Z,0.00
2023-05-06T02:18:04.744Z,0.00
2023-05-06T02:19:04.711Z,0.00
2023-05-06T02:20:04.767Z,0.00
2023-05-06T02:21:04.707Z,0.00
2023-05-06T02:22:04.676Z,0.00
2023-05-06T02:23:04.688Z,0.00
2023-05-06T02:24:04.652Z,0.00
2023-05-06T02:25:04.686Z,0.00
2023-05-06T02:26:04.626Z,0.00
2023-05-06T02:27:04.652Z,0.00
2023-05-06T02:28:04.604Z,0.00
2023-05-06T02:29:04.601Z,0.00
2023-05-06T02:30:04.607Z,0.00
2023-05-06T02:31:04.655Z,0.00
2023-05-06T02:32:04.552Z,0.00
2023-05-06T02:33:04.625Z,0.00
2023-05-06T02:34:04.537Z,0.00
2023-05-06T02:35:04.577Z,0.00
2023-05-06T02:36:04.521Z,0.00
2023-05-06T02:37:04.523Z,0.00
2023-05-06T02:38:04.508Z,0.00
2023-05-06T02:39:04.513Z,0.00
2023-05-06T02:40:04.478Z,0.00
2023-05-06T02:41:04.484Z,0.00
2023-05-06T02:42:04.484Z,0.00
2023-05-06T02:43:04.469Z,0.00
2023-05-06T02:44:04.467Z,0.00
2023-05-06T02:45:04.431Z,0.00
2023-05-06T02:46:04.509Z,0.00
2023-05-06T02:47:04.398Z,0.00
2023-05-06T02:48:04.445Z,0.00
2023-05-06T02:49:04.381Z,0.00
2023-05-06T02:50:04.395Z,0.00
2023-05-06T02:51:04.349Z,0.00
2023-05-06T02:52:04.391Z,0.00
2023-05-06T02:53:04.339Z,0.00
2023-05-06T02:54:04.334Z,0.00
2023-05-06T02:55:04.301Z,0.00
2023-05-06T02:56:04.323Z,0.00
2023-05-06T02:57:04.284Z,0.00
2023-05-06T02:58:04.300Z,0.00
2023-05-06T02:59:04.266Z,0.00
2023-05-06T03:00:04.313Z,0.00
2023-05-06T03:01:04.298Z,0.00
2023-05-06T03:02:04.259Z,0.00
2023-05-06T03:03:04.268Z,0.00
2023-05-06T03:04:04.329Z,0.00
2023-05-06T03:05:04.201Z,0.00
2023-05-06T03:06:04.216Z,0.00
2023-05-06T03:07:04.200Z,0.00
2023-05-06T03:08:04.225Z,0.00
2023-05-06T03:09:04.154Z,0.00
2023-05-06T03:10:04.158Z,0.00
2023-05-06T03:11:04.704Z,0.00
2023-05-06T03:12:04.161Z,0.00
2023-05-06T03:13:04.162Z,0.00
2023-05-06T03:14:04.138Z,0.00
2023-05-06T03:15:04.092Z,0.00
2023-05-06T03:16:04.159Z,0.00
2023-05-06T03:17:04.069Z,0.00
2023-05-06T03:18:04.144Z,0.00
2023-05-06T03:19:04.064Z,0.00
2023-05-06T03:20:04.068Z,0.00
2023-05-06T03:21:04.088Z,0.00
2023-05-06T03:22:04.053Z,0.00
2023-05-06T03:23:04.043Z,0.00
2023-05-06T03:24:04.028Z,0.00
2023-05-06T03:25:03.983Z,0.00
2023-05-06T03:26:04.013Z,0.00
2023-05-06T03:27:03.907Z,1.00
2023-05-06T03:28:03.936Z,1.00
2023-05-06T03:29:03.913Z,1.00
2023-05-06T03:30:03.936Z,1.00
2023-05-06T03:31:03.924Z,1.00
2023-05-06T03:32:03.940Z,0.00
2023-05-06T03:33:03.939Z,0.00
2023-05-06T03:34:03.923Z,0.00
2023-05-06T03:35:03.843Z,2.00
2023-05-06T03:36:03.838Z,1.00
2023-05-06T03:37:03.812Z,1.00
2023-05-06T03:38:03.897Z,0.00
2023-05-06T03:39:03.808Z,2.00
2023-05-06T03:40:03.808Z,1.00
2023-05-06T03:41:03.761Z,1.00
2023-05-06T03:42:03.779Z,4.00
2023-05-06T03:43:03.755Z,5.00
2023-05-06T03:44:03.756Z,6.00
2023-05-06T03:45:03.738Z,5.00
2023-05-06T03:46:03.773Z,6.00
2023-05-06T03:47:03.689Z,6.00
2023-05-06T03:48:03.761Z,4.00
2023-05-06T03:49:03.677Z,6.00
2023-05-06T03:50:03.688Z,6.00
2023-05-06T03:51:03.664Z,7.00
2023-05-06T03:52:03.674Z,8.00
2023-05-06T03:53:03.631Z,9.00
2023-05-06T03:54:03.630Z,9.00
2023-05-06T03:55:03.603Z,11.00
2023-05-06T03:56:03.618Z,11.00
2023-05-06T03:57:03.599Z,14.00
2023-05-06T03:58:03.605Z,12.00
2023-05-06T03:59:03.571Z,14.00
2023-05-06T04:00:03.581Z,15.00
2023-05-06T04:01:03.539Z,14.00
2023-05-06T04:02:03.621Z,15.00
2023-05-06T04:03:03.591Z,16.00
2023-05-06T04:04:03.582Z,18.00
2023-05-06T04:05:03.502Z,20.00
2023-05-06T04:06:03.501Z,21.00
2023-05-06T04:07:03.465Z,26.00
2023-05-06T04:08:03.501Z,25.00
2023-05-06T04:09:03.462Z,28.00
2023-05-06T04:10:03.466Z,31.00
2023-05-06T04:11:03.430Z,34.00
2023-05-06T04:12:03.453Z,33.00
2023-05-06T04:13:03.495Z,31.00
2023-05-06T04:14:03.455Z,37.00
2023-05-06T04:15:03.387Z,48.00
2023-05-06T04:16:03.446Z,46.00
2023-05-06T04:17:03.361Z,46.00
2023-05-06T04:18:03.445Z,58.00
2023-05-06T04:19:05.731Z,60.00
2023-05-06T04:20:03.341Z,65.00
2023-05-06T04:21:03.342Z,66.00
2023-05-06T04:22:03.358Z,65.00
2023-05-06T04:23:03.301Z,66.00
2023-05-06T04:24:03.321Z,68.00
2023-05-06T04:25:03.278Z,78.00
2023-05-06T04:26:03.300Z,77.00
2023-05-06T04:27:03.259Z,78.00
2023-05-06T04:28:03.294Z,85.00
2023-05-06T04:29:03.254Z,82.00
2023-05-06T04:30:03.298Z,85.00
2023-05-06T04:31:03.217Z,85.00
2023-05-06T04:32:03.381Z,93.00
2023-05-06T04:33:03.228Z,87.00
2023-05-06T04:34:03.202Z,98.00
2023-05-06T04:35:03.171Z,95.00
2023-05-06T04:36:03.213Z,102.00
2023-05-06T04:37:03.148Z,90.00
2023-05-06T04:38:03.157Z,81.00
2023-05-06T04:39:03.149Z,78.00
2023-05-06T04:40:03.170Z,90.00
2023-05-06T04:41:03.108Z,99.00
2023-05-06T04:42:03.130Z,94.00
2023-05-06T04:43:03.104Z,97.00
2023-05-06T04:44:03.094Z,104.00
2023-05-06T04:45:03.067Z,110.00
2023-05-06T04:46:03.094Z,121.00
2023-05-06T04:47:03.047Z,130.00
2023-05-06T04:48:03.117Z,153.00
2023-05-06T04:49:03.024Z,172.00
2023-05-06T04:50:03.062Z,196.00
2023-05-06T04:51:03.032Z,230.00
2023-05-06T04:52:03.020Z,201.00
2023-05-06T04:53:02.990Z,180.00
2023-05-06T04:54:02.993Z,194.00
2023-05-06T04:55:03.010Z,189.00
2023-05-06T04:56:02.981Z,171.00
2023-05-06T04:57:02.951Z,244.00
2023-05-06T04:58:02.953Z,199.00
2023-05-06T04:59:02.911Z,167.00
2023-05-06T05:00:02.946Z,294.00
2023-05-06T05:01:02.938Z,212.00
2023-05-06T05:02:02.978Z,185.00
2023-05-06T05:03:02.966Z,176.00
2023-05-06T05:04:02.885Z,162.00
2023-05-06T05:05:02.867Z,170.00
2023-05-06T05:06:02.875Z,166.00
2023-05-06T05:07:02.844Z,140.00
2023-05-06T05:08:02.835Z,162.00
2023-05-06T05:09:02.830Z,191.00
2023-05-06T05:10:02.825Z,238.00
2023-05-06T05:11:02.786Z,265.00
2023-05-06T05:12:02.798Z,238.00
2023-05-06T05:13:02.848Z,215.00
2023-05-06T05:14:02.785Z,229.00
2023-05-06T05:15:02.743Z,249.00
2023-05-06T05:16:02.751Z,346.00
2023-05-06T05:17:02.825Z,355.00
2023-05-06T05:18:02.782Z,334.00
2023-05-06T05:19:03.734Z,319.00
2023-05-06T05:20:02.709Z,294.00
2023-05-06T05:21:02.679Z,271.00
2023-05-06T05:22:02.733Z,265.00
2023-05-06T05:23:02.661Z,288.00
2023-05-06T05:24:02.687Z,282.00
2023-05-06T05:25:02.654Z,301.00
2023-05-06T05:26:02.667Z,359.00
2023-05-06T05:27:02.644Z,282.00
2023-05-06T05:28:02.633Z,354.00
2023-05-06T05:29:02.597Z,370.00
2023-05-06T05:30:02.617Z,362.00
2023-05-06T05:31:02.630Z,306.00
2023-05-06T05:32:02.610Z,149.00
2023-05-06T05:33:02.700Z,331.00
2023-05-06T05:34:02.564Z,205.00
2023-05-06T05:35:02.527Z,180.00
2023-05-06T05:36:02.550Z,258.00
2023-05-06T05:37:02.527Z,231.00
2023-05-06T05:38:02.515Z,269.00
2023-05-06T05:39:02.522Z,598.00
2023-05-06T05:40:02.512Z,181.00
2023-05-06T05:41:02.548Z,216.00
2023-05-06T05:42:02.525Z,491.00
2023-05-06T05:43:02.461Z,397.00
2023-05-06T05:44:02.479Z,248.00
2023-05-06T05:45:02.460Z,198.00
2023-05-06T05:46:02.502Z,218.00
2023-05-06T05:47:02.393Z,232.00
2023-05-06T05:48:02.487Z,245.00
2023-05-06T05:49:02.403Z,270.00
2023-05-06T05:50:02.414Z,354.00
2023-05-06T05:51:02.374Z,374.00
2023-05-06T05:52:02.376Z,340.00
2023-05-06T05:53:02.365Z,358.00
2023-05-06T05:54:02.349Z,271.00
2023-05-06T05:55:02.325Z,287.00
2023-05-06T05:56:02.332Z,317.00
2023-05-06T05:57:02.303Z,369.00
2023-05-06T05:58:02.319Z,586.00
2023-05-06T05:59:02.282Z,465.00
2023-05-06T06:00:02.277Z,598.00
2023-05-06T06:01:02.269Z,331.00
2023-05-06T06:02:02.254Z,496.00
2023-05-06T06:03:02.348Z,366.00
2023-05-06T06:04:02.370Z,652.00
2023-05-06T06:05:02.221Z,639.00
2023-05-06T06:06:02.216Z,502.00
2023-05-06T06:07:02.208Z,341.00
2023-05-06T06:08:03.791Z,381.00
2023-05-06T06:09:02.164Z,432.00
2023-05-06T06:10:02.187Z,609.00
2023-05-06T06:11:02.158Z,685.00
2023-05-06T06:12:02.178Z,799.00
2023-05-06T06:13:02.172Z,840.00
2023-05-06T06:14:02.137Z,530.00
2023-05-06T06:15:02.139Z,333.00
2023-05-06T06:16:02.133Z,336.00
2023-05-06T06:17:02.102Z,453.00
2023-05-06T06:18:02.154Z,748.00
2023-05-06T06:19:02.073Z,517.00
2023-05-06T06:20:02.083Z,327.00
2023-05-06T06:21:02.074Z,471.00
2023-05-06T06:22:02.065Z,368.00
2023-05-06T06:23:02.024Z,415.00
2023-05-06T06:24:02.024Z,512.00
2023-05-06T06:25:01.996Z,933.00
2023-05-06T06:26:01.996Z,734.00
2023-05-06T06:27:01.973Z,387.00
2023-05-06T06:28:02.009Z,475.00
2023-05-06T06:29:01.962Z,559.00
2023-05-06T06:30:01.985Z,1080.00
2023-05-06T06:31:02.092Z,842.00
2023-05-06T06:32:01.989Z,617.00
2023-05-06T06:33:02.029Z,301.00
2023-05-06T06:34:01.934Z,340.00
2023-05-06T06:35:01.897Z,535.00
2023-05-06T06:36:01.918Z,495.00
2023-05-06T06:37:01.871Z,398.00
2023-05-06T06:38:01.892Z,326.00
2023-05-06T06:39:01.849Z,333.00
2023-05-06T06:40:01.872Z,429.00
2023-05-06T06:41:01.833Z,308.00
2023-05-06T06:42:01.863Z,342.00
2023-05-06T06:43:01.818Z,416.00
2023-05-06T06:44:01.839Z,414.00
2023-05-06T06:45:01.786Z,571.00
2023-05-06T06:46:01.868Z,745.00
2023-05-06T06:47:01.829Z,557.00
2023-05-06T06:48:01.798Z,463.00
2023-05-06T06:49:01.759Z,509.00
2023-05-06T06:50:01.768Z,469.00
2023-05-06T06:51:01.727Z,370.00
2023-05-06T06:52:01.719Z,415.00
2023-05-06T06:53:03.061Z,455.00
2023-05-06T06:54:01.733Z,479.00
2023-05-06T06:55:01.690Z,450.00
2023-05-06T06:56:01.675Z,440.00
2023-05-06T06:57:01.677Z,295.00
2023-05-06T06:58:01.648Z,327.00
2023-05-06T06:59:01.676Z,406.00
2023-05-06T07:00:01.682Z,385.00
2023-05-06T07:01:01.753Z,412.00
2023-05-06T07:02:01.596Z,420.00
2023-05-06T07:03:01.665Z,387.00
2023-05-06T07:04:01.595Z,569.00
2023-05-06T07:05:01.616Z,469.00
2023-05-06T07:06:01.607Z,433.00
2023-05-06T07:07:01.573Z,380.00
2023-05-06T07:08:01.539Z,431.00
2023-05-06T07:09:01.565Z,537.00
2023-05-06T07:10:01.564Z,632.00
2023-05-06T07:11:01.549Z,501.00
2023-05-06T07:12:01.493Z,569.00
2023-05-06T07:13:01.555Z,767.00
2023-05-06T07:14:01.474Z,973.00
2023-05-06T07:15:01.517Z,576.00
2023-05-06T07:16:01.456Z,443.00
2023-05-06T07:17:01.517Z,505.00
2023-05-06T07:18:01.468Z,516.00
2023-05-06T07:19:01.466Z,386.00
2023-05-06T07:20:01.420Z,353.00
2023-05-06T07:21:01.419Z,343.00
2023-05-06T07:22:01.396Z,376.00
2023-05-06T07:23:01.422Z,602.00
2023-05-06T07:24:01.369Z,548.00
2023-05-06T07:25:01.453Z,334.00
2023-05-06T07:26:01.357Z,357.00
2023-05-06T07:27:01.380Z,391.00
2023-05-06T07:28:01.350Z,536.00
2023-05-06T07:29:01.364Z,559.00
2023-05-06T07:30:01.366Z,450.00
2023-05-06T07:31:01.338Z,483.00
2023-05-06T07:32:01.308Z,440.00
2023-05-06T07:33:01.427Z,470.00
2023-05-06T07:34:01.261Z,372.00
2023-05-06T07:35:01.267Z,360.00
2023-05-06T07:36:01.283Z,396.00
2023-05-06T07:37:01.263Z,443.00
2023-05-06T07:38:01.226Z,495.00
2023-05-06T07:39:01.241Z,1110.00
2023-05-06T07:40:01.205Z,823.00
2023-05-06T07:41:01.227Z,526.00
2023-05-06T07:42:01.187Z,245.00
2023-05-06T07:43:01.214Z,316.00
2023-05-06T07:44:01.174Z,362.00
2023-05-06T07:45:01.172Z,558.00
2023-05-06T07:46:01.181Z,517.00
2023-05-06T07:47:01.219Z,460.00
2023-05-06T07:48:01.151Z,355.00
2023-05-06T07:49:01.127Z,350.00
2023-05-06T07:50:01.112Z,422.00
2023-05-06T07:51:01.119Z,524.00
2023-05-06T07:52:01.072Z,880.00
2023-05-06T07:53:01.114Z,778.00
2023-05-06T07:54:01.057Z,507.00
2023-05-06T07:55:01.090Z,1044.00
2023-05-06T07:56:01.032Z,541.00
2023-05-06T07:57:01.054Z,690.00
2023-05-06T07:58:01.000Z,644.00
2023-05-06T07:59:01.028Z,527.00
2023-05-06T08:00:00.997Z,507.00
2023-05-06T08:01:01.064Z,513.00
2023-05-06T08:02:00.969Z,595.00
2023-05-06T08:03:01.053Z,780.00
2023-05-06T08:04:00.987Z,776.00
2023-05-06T08:05:00.981Z,3006.00
2023-05-06T08:06:00.924Z,672.00
2023-05-06T08:07:00.955Z,2210.00
2023-05-06T08:08:00.905Z,593.00
2023-05-06T08:09:00.917Z,619.00
2023-05-06T08:10:00.888Z,688.00
2023-05-06T08:11:00.903Z,805.00
2023-05-06T08:12:00.869Z,1573.00
2023-05-06T08:13:00.932Z,1562.00
2023-05-06T08:14:00.848Z,1080.00
2023-05-06T08:15:00.845Z,913.00
2023-05-06T08:16:00.876Z,719.00
2023-05-06T08:17:01.008Z,731.00
2023-05-06T08:18:13.825Z,586.00
2023-05-06T08:19:00.806Z,817.00
2023-05-06T08:20:00.777Z,1782.00
2023-05-06T08:21:00.790Z,2519.00
2023-05-06T08:22:00.760Z,3617.00
2023-05-06T08:23:00.751Z,3262.00
2023-05-06T08:24:00.722Z,3648.00
2023-05-06T08:25:00.732Z,8541.00
2023-05-06T08:26:00.705Z,2038.00
2023-05-06T08:27:00.740Z,2068.00
2023-05-06T08:28:00.685Z,7309.00
2023-05-06T08:29:00.709Z,7244.00
2023-05-06T08:30:00.678Z,2369.00
2023-05-06T08:31:00.692Z,820.00
2023-05-06T08:32:00.690Z,955.00
2023-05-06T08:33:00.692Z,890.00
2023-05-06T08:34:00.634Z,2263.00
2023-05-06T08:35:00.675Z,1266.00
2023-05-06T08:36:00.605Z,3679.00
2023-05-06T08:37:00.693Z,5204.00
2023-05-06T08:38:00.685Z,5857.00
2023-05-06T08:39:01.477Z,2272.00
2023-05-06T08:40:00.633Z,3272.00
2023-05-06T08:40:59.679Z,4306.00
2023-05-06T08:42:00.663Z,4777.00
2023-05-06T08:43:00.549Z,4796.00
2023-05-06T08:44:00.546Z,4916.00
2023-05-06T08:45:00.525Z,8949.00
2023-05-06T08:46:00.541Z,2312.00
2023-05-06T08:47:00.538Z,5515.00
2023-05-06T08:48:00.522Z,5000.00
2023-05-06T08:49:00.509Z,6622.00
2023-05-06T08:50:00.459Z,4454.00
2023-05-06T08:51:00.494Z,3758.00
2023-05-06T08:52:00.439Z,4580.00
2023-05-06T08:53:00.467Z,3250.00
2023-05-06T08:54:00.431Z,4237.00
2023-05-06T08:55:00.426Z,4310.00
2023-05-06T08:56:00.410Z,5833.00
2023-05-06T08:57:00.405Z,4403.00
2023-05-06T08:58:00.389Z,4838.00
2023-05-06T08:59:00.430Z,3820.00
2023-05-06T09:00:00.364Z,3402.00
2023-05-06T09:01:00.575Z,4113.00
2023-05-06T09:02:00.371Z,3886.00
2023-05-06T09:03:00.458Z,6253.00
2023-05-06T09:04:00.316Z,985.00
2023-05-06T09:05:00.321Z,1010.00
2023-05-06T09:06:00.286Z,3555.00
2023-05-06T09:07:00.311Z,971.00
2023-05-06T09:08:00.268Z,839.00
2023-05-06T09:09:00.299Z,1340.00
2023-05-06T09:10:00.284Z,3739.00
2023-05-06T09:11:00.277Z,6413.00
2023-05-06T09:12:00.239Z,2168.00
2023-05-06T09:13:00.286Z,3639.00
2023-05-06T09:14:00.201Z,3217.00
2023-05-06T09:15:00.228Z,4553.00
2023-05-06T09:16:00.186Z,3587.00
2023-05-06T09:17:00.246Z,5474.00
2023-05-06T09:18:00.234Z,3648.00
2023-05-06T09:19:00.186Z,3788.00
2023-05-06T09:20:00.217Z,4764.00
2023-05-06T09:21:00.865Z,4387.00
2023-05-06T09:22:00.128Z,4652.00
2023-05-06T09:23:00.147Z,4065.00
2023-05-06T09:24:00.134Z,4198.00
2023-05-06T09:25:00.141Z,5108.00
2023-05-06T09:26:00.146Z,8715.00
2023-05-06T09:27:00.103Z,2086.00
2023-05-06T09:28:00.101Z,2842.00
2023-05-06T09:29:00.057Z,4409.00
2023-05-06T09:30:00.040Z,8064.00
2023-05-06T09:31:00.078Z,1633.00
2023-05-06T09:32:00.026Z,2182.00
2023-05-06T09:33:00.108Z,2748.00
2023-05-06T09:33:59.987Z,5222.00
2023-05-06T09:35:00.010Z,4076.00
2023-05-06T09:35:59.988Z,4654.00
2023-05-06T09:36:59.992Z,8339.00
2023-05-06T09:37:59.963Z,4925.00
2023-05-06T09:38:59.970Z,1768.00
2023-05-06T09:39:59.932Z,1551.00
2023-05-06T09:40:59.945Z,3371.00
2023-05-06T09:41:59.910Z,4568.00
2023-05-06T09:42:59.931Z,4244.00
2023-05-06T09:43:59.887Z,4229.00
2023-05-06T09:45:01.660Z,4868.00
2023-05-06T09:45:59.910Z,4117.00
2023-05-06T09:46:59.882Z,3384.00
2023-05-06T09:47:59.880Z,10956.00
2023-05-06T09:48:59.894Z,3392.00
2023-05-06T09:49:59.825Z,1029.00
2023-05-06T09:51:01.280Z,1889.00
2023-05-06T09:51:59.819Z,12165.00
2023-05-06T09:52:59.842Z,2309.00
2023-05-06T09:53:59.787Z,13153.00
2023-05-06T09:54:59.824Z,3283.00
2023-05-06T09:55:59.804Z,1352.00
2023-05-06T09:57:01.069Z,4265.00
2023-05-06T09:57:59.863Z,1433.00
2023-05-06T09:58:59.759Z,7157.00
2023-05-06T09:59:59.713Z,2028.00
2023-05-06T10:00:59.749Z,2490.00
2023-05-06T10:01:59.718Z,1284.00
2023-05-06T10:02:59.869Z,1285.00
2023-05-06T10:03:59.814Z,2810.00
2023-05-06T10:04:59.941Z,5348.00
2023-05-06T10:05:59.661Z,4590.00
2023-05-06T10:06:59.666Z,5734.00
2023-05-06T10:07:59.657Z,5766.00
2023-05-06T10:08:59.661Z,3931.00
2023-05-06T10:09:59.617Z,10402.00
2023-05-06T10:10:59.627Z,2958.00
2023-05-06T10:11:59.602Z,11203.00
2023-05-06T10:12:59.651Z,1865.00
2023-05-06T10:13:59.694Z,1445.00
2023-05-06T10:14:59.598Z,1226.00
2023-05-06T10:15:59.600Z,933.00
2023-05-06T10:16:59.589Z,3741.00
2023-05-06T10:17:59.538Z,3171.00
2023-05-06T10:18:59.546Z,4261.00
2023-05-06T10:19:59.522Z,5342.00
2023-05-06T10:20:59.541Z,5762.00
2023-05-06T10:21:59.488Z,4960.00
2023-05-06T10:22:59.513Z,5275.00
2023-05-06T10:23:59.473Z,5315.00
2023-05-06T10:24:59.490Z,4861.00
2023-05-06T10:25:59.450Z,4936.00
2023-05-06T10:26:59.474Z,5215.00
2023-05-06T10:27:59.426Z,6684.00
2023-05-06T10:28:59.450Z,5274.00
2023-05-06T10:29:59.429Z,5664.00
2023-05-06T10:30:59.471Z,5265.00
2023-05-06T10:31:59.472Z,4423.00
2023-05-06T10:32:59.426Z,6289.00
2023-05-06T10:33:59.364Z,4850.00
2023-05-06T10:34:59.375Z,3839.00
2023-05-06T10:35:59.348Z,5972.00
2023-05-06T10:36:59.374Z,3026.00
2023-05-06T10:37:59.327Z,4140.00
2023-05-06T10:38:59.345Z,5299.00
2023-05-06T10:39:59.306Z,8094.00
2023-05-06T10:40:59.338Z,7422.00
2023-05-06T10:41:59.294Z,1772.00
2023-05-06T10:42:59.290Z,2321.00
2023-05-06T10:43:59.274Z,1104.00
2023-05-06T10:44:59.280Z,1507.00
2023-05-06T10:45:59.294Z,6154.00
2023-05-06T10:46:59.261Z,1148.00
2023-05-06T10:47:59.241Z,1248.00
2023-05-06T10:48:59.246Z,1083.00
2023-05-06T10:49:59.197Z,896.00
2023-05-06T10:50:59.220Z,1019.00
2023-05-06T10:51:59.194Z,1602.00
2023-05-06T10:52:58.181Z,3138.00
2023-05-06T10:53:59.157Z,4383.00
2023-05-06T10:54:59.176Z,4204.00
2023-05-06T10:55:59.179Z,4775.00
2023-05-06T10:56:59.158Z,5182.00
2023-05-06T10:57:59.128Z,3389.00
2023-05-06T10:58:59.201Z,5129.00
2023-05-06T10:59:59.124Z,7355.00
2023-05-06T11:00:59.173Z,2908.00
2023-05-06T11:01:59.092Z,3449.00
2023-05-06T11:02:59.181Z,12243.00
2023-05-06T11:03:59.055Z,2951.00
2023-05-06T11:04:59.064Z,1939.00
2023-05-06T11:05:59.039Z,1414.00
2023-05-06T11:06:59.053Z,2940.00
2023-05-06T11:07:59.030Z,1925.00
2023-05-06T11:08:59.040Z,8608.00
2023-05-06T11:09:59.010Z,1925.00
2023-05-06T11:10:59.020Z,2979.00
2023-05-06T11:11:59.009Z,3489.00
2023-05-06T11:12:59.016Z,4762.00
2023-05-06T11:13:58.981Z,5323.00
2023-05-06T11:14:58.947Z,5410.00
2023-05-06T11:15:58.962Z,4958.00
2023-05-06T11:16:58.947Z,10767.00
2023-05-06T11:17:58.990Z,1631.00
2023-05-06T11:18:58.915Z,2984.00
2023-05-06T11:19:58.935Z,3938.00
2023-05-06T11:20:58.896Z,5697.00
2023-05-06T11:21:58.912Z,5425.00
2023-05-06T11:22:58.928Z,6470.00
2023-05-06T11:23:58.899Z,10615.00
2023-05-06T11:24:58.849Z,2000.00
2023-05-06T11:25:58.864Z,2044.00
2023-05-06T11:26:58.826Z,1342.00
2023-05-06T11:27:58.831Z,1355.00
2023-05-06T11:28:58.814Z,2439.00
2023-05-06T11:29:58.811Z,4547.00
2023-05-06T11:30:58.833Z,4692.00
2023-05-06T11:31:58.802Z,5710.00
2023-05-06T11:32:58.827Z,5580.00
2023-05-06T11:33:58.811Z,4944.00
2023-05-06T11:34:58.744Z,4743.00
2023-05-06T11:35:58.768Z,13144.00
2023-05-06T11:36:58.786Z,5400.00
2023-05-06T11:37:58.760Z,1537.00
2023-05-06T11:38:58.699Z,1485.00
2023-05-06T11:39:58.759Z,2354.00
2023-05-06T11:40:58.682Z,11074.00
2023-05-06T11:41:58.702Z,1540.00
2023-05-06T11:42:58.665Z,2328.00
2023-05-06T11:43:58.683Z,3203.00
2023-05-06T11:44:58.649Z,6421.00
2023-05-06T11:45:58.696Z,5242.00
2023-05-06T11:46:58.632Z,5602.00
2023-05-06T11:47:58.720Z,6052.00
2023-05-06T11:48:58.608Z,5986.00
2023-05-06T11:49:58.637Z,5615.00
2023-05-06T11:50:58.580Z,6058.00
2023-05-06T11:51:58.622Z,6116.00
2023-05-06T11:52:58.570Z,5739.00
2023-05-06T11:53:58.565Z,7089.00
2023-05-06T11:54:58.549Z,5703.00
2023-05-06T11:55:58.552Z,5756.00
2023-05-06T11:56:58.555Z,5858.00
2023-05-06T11:57:58.522Z,6326.00
2023-05-06T11:58:58.496Z,6180.00
2023-05-06T11:59:58.501Z,6452.00
2023-05-06T12:00:58.485Z,5367.00
2023-05-06T12:01:58.493Z,4098.00
2023-05-06T12:02:58.512Z,6659.00
2023-05-06T12:03:58.629Z,5209.00
2023-05-06T12:05:58.450Z,6427.00
2023-05-06T12:06:58.435Z,4323.00
2023-05-06T12:07:58.431Z,13414.00
2023-05-06T12:08:58.409Z,2251.00
2023-05-06T12:09:58.401Z,7152.00
2023-05-06T12:10:58.406Z,7039.00
2023-05-06T12:11:58.388Z,5933.00
2023-05-06T12:12:58.404Z,6553.00
2023-05-06T12:13:58.379Z,5752.00
2023-05-06T12:14:58.343Z,5621.00
2023-05-06T12:15:58.388Z,6859.00
2023-05-06T12:16:58.325Z,5380.00
2023-05-06T12:17:58.363Z,7222.00
2023-05-06T12:18:58.300Z,6408.00
2023-05-06T12:19:58.353Z,8582.00
2023-05-06T12:20:58.289Z,4762.00
2023-05-06T12:21:58.312Z,8336.00
2023-05-06T12:22:58.278Z,10894.00
2023-05-06T12:23:58.354Z,2434.00
2023-05-06T12:24:58.321Z,6762.00
2023-05-06T12:25:58.245Z,2800.00
2023-05-06T12:26:58.254Z,7317.00
2023-05-06T12:27:58.239Z,6688.00
2023-05-06T12:28:58.197Z,6772.00
2023-05-06T12:29:58.209Z,5642.00
2023-05-06T12:30:58.201Z,6703.00
2023-05-06T12:31:58.202Z,6420.00
2023-05-06T12:32:58.223Z,6428.00
2023-05-06T12:34:00.539Z,6735.00
2023-05-06T12:34:58.143Z,6408.00
2023-05-06T12:35:58.166Z,5287.00
2023-05-06T12:36:58.120Z,6859.00